Time;durP1;ratioP1;P1;durP2;ratioP2;P2;SDS_P1;SDS_P2;PMS_P1;PMS_P2;Temp;Humidity;BMP_temperature;BMP_pressure;BME280_temperature;BME280_humidity;BME280_pressure;Samples;Min_cycle;Max_cycle;Signal;HPM_P1;HPM_P2
2023/02/20 00:00:55;;;;;;;8.27;4.70;;;;;;;;;;5071312;28;20024;-75
2023/02/20 00:03:21;;;;;;;12.20;5.55;;;;;;;;;;5070652;28;20043;-74
2023/02/20 00:05:47;;;;;;;9.35;4.78;;;;;;;;;;5070864;28;20091;-76
2023/02/20 00:08:13;;;;;;;9.57;5.30;;;;;;;;;;5069875;28;20020;-75
2023/02/20 00:10:39;;;;;;;10.98;5.82;;;;;;;;;;5070678;28;20103;-74
2023/02/20 00:13:05;;;;;;;9.13;5.60;;;;;;;;;;5070666;28;20051;-75
2023/02/20 00:15:31;;;;;;;9.00;5.70;;;;;;;;;;5070666;28;20020;-75
2023/02/20 00:17:57;;;;;;;6.85;5.25;;;;;;;;;;5070472;28;20028;-73
2023/02/20 00:20:24;;;;;;;6.15;4.65;;;;;;;;;;5070908;28;20029;-75
2023/02/20 00:22:51;;;;;;;7.15;5.00;;;;;;;;;;5070753;28;20025;-76
2023/02/20 00:25:18;;;;;;;9.10;5.05;;;;;;;;;;5070596;28;20047;-76
2023/02/20 00:27:44;;;;;;;8.55;5.43;;;;;;;;;;5068812;28;20032;-76
2023/02/20 00:30:23;;;;;;;10.05;5.40;;;;;;;;;;5070504;28;20024;-76
2023/02/20 00:32:50;;;;;;;7.28;5.20;;;;;;;;;;5070616;28;20029;-76
2023/02/20 00:35:16;;;;;;;10.00;6.38;;;;;;;;;;5070430;28;20024;-76
2023/02/20 00:37:42;;;;;;;7.88;4.75;;;;;;;;;;5069741;28;20432;-75
2023/02/20 00:40:09;;;;;;;7.88;5.45;;;;;;;;;;5070195;28;20108;-76
2023/02/20 00:42:35;;;;;;;9.02;5.00;;;;;;;;;;5070503;28;20030;-75
2023/02/20 00:45:01;;;;;;;7.65;5.15;;;;;;;;;;5070773;28;20104;-75
2023/02/20 00:47:27;;;;;;;9.32;5.53;;;;;;;;;;5073489;28;20099;-75
2023/02/20 00:49:53;;;;;;;8.95;4.90;;;;;;;;;;5074064;28;20029;-76
2023/02/20 00:52:19;;;;;;;8.10;4.97;;;;;;;;;;5074482;28;20082;-76
2023/02/20 00:54:45;;;;;;;7.55;4.90;;;;;;;;;;5074536;28;20051;-75
2023/02/20 00:57:11;;;;;;;8.88;5.60;;;;;;;;;;5073730;28;20017;-75
2023/02/20 00:59:37;;;;;;;6.78;4.80;;;;;;;;;;5074037;28;20027;-75
2023/02/20 01:02:03;;;;;;;7.90;5.35;;;;;;;;;;5074025;28;20032;-75
2023/02/20 01:04:29;;;;;;;5.88;4.68;;;;;;;;;;5070834;22;20059;-75
2023/02/20 01:06:55;;;;;;;5.20;4.32;;;;;;;;;;5067944;28;20040;-75
2023/02/20 01:09:21;;;;;;;8.07;4.82;;;;;;;;;;5073320;28;20024;-75
2023/02/20 01:11:47;;;;;;;6.55;4.50;;;;;;;;;;5073176;28;20410;-75
2023/02/20 01:14:14;;;;;;;7.05;5.43;;;;;;;;;;5045067;28;20491;-75
2023/02/20 01:16:44;;;;;;;7.93;4.90;;;;;;;;;;5033547;28;20507;-76
2023/02/20 01:19:10;;;;;;;6.53;4.70;;;;;;;;;;5049254;28;20094;-75
2023/02/20 01:21:36;;;;;;;7.65;4.72;;;;;;;;;;5032181;28;20124;-75
2023/02/20 01:24:02;;;;;;;9.05;5.75;;;;;;;;;;5033760;28;20025;-75
2023/02/20 01:26:28;;;;;;;9.30;6.00;;;;;;;;;;5033302;28;20060;-76
2023/02/20 01:28:54;;;;;;;7.03;5.25;;;;;;;;;;5032977;28;20049;-75
2023/02/20 01:31:20;;;;;;;7.82;5.20;;;;;;;;;;5031947;28;20060;-79
2023/02/20 01:33:46;;;;;;;6.53;5.10;;;;;;;;;;5033440;28;20115;-77
2023/02/20 01:36:13;;;;;;;6.20;4.45;;;;;;;;;;5031796;28;20381;-78
2023/02/20 01:38:42;;;;;;;6.03;4.65;;;;;;;;;;5032760;28;20079;-76
2023/02/20 01:41:09;;;;;;;5.43;4.55;;;;;;;;;;5033744;28;20399;-75
2023/02/20 01:43:35;;;;;;;10.35;5.30;;;;;;;;;;5033440;28;20025;-74
2023/02/20 01:46:20;;;;;;;6.15;4.85;;;;;;;;;;5033389;28;20115;-75
2023/02/20 01:48:46;;;;;;;7.07;4.90;;;;;;;;;;5033125;28;20037;-73
2023/02/20 01:51:12;;;;;;;9.40;5.18;;;;;;;;;;5033655;28;20022;-76
2023/02/20 01:53:38;;;;;;;8.10;5.53;;;;;;;;;;5036876;28;20017;-76
2023/02/20 01:56:07;;;;;;;7.50;5.03;;;;;;;;;;5045853;28;20014;-76
2023/02/20 01:58:36;;;;;;;6.85;5.55;;;;;;;;;;5029882;28;20049;-75
2023/02/20 02:01:03;;;;;;;8.45;5.22;;;;;;;;;;5032845;28;20029;-74
2023/02/20 02:03:31;;;;;;;7.95;5.10;;;;;;;;;;5031592;28;20430;-74
2023/02/20 02:06:01;;;;;;;9.30;5.25;;;;;;;;;;5033415;28;20029;-74
2023/02/20 02:08:28;;;;;;;8.43;5.70;;;;;;;;;;5032101;28;20041;-74
2023/02/20 02:10:58;;;;;;;8.55;5.63;;;;;;;;;;5033188;28;20300;-74
2023/02/20 02:13:24;;;;;;;8.48;5.85;;;;;;;;;;5034329;28;20059;-75
2023/02/20 02:15:51;;;;;;;8.45;5.18;;;;;;;;;;5034650;28;20032;-75
2023/02/20 02:18:18;;;;;;;9.45;6.32;;;;;;;;;;5035374;28;20033;-76
2023/02/20 02:20:49;;;;;;;11.65;6.43;;;;;;;;;;5041754;28;20029;-75
2023/02/20 02:23:34;;;;;;;9.15;5.93;;;;;;;;;;5044005;28;20037;-75
2023/02/20 02:26:18;;;;;;;8.88;6.82;;;;;;;;;;5039597;28;20017;-75
2023/02/20 02:29:02;;;;;;;8.18;6.32;;;;;;;;;;5032179;28;20030;-75
2023/02/20 02:31:47;;;;;;;8.65;6.60;;;;;;;;;;5032451;28;20040;-76
2023/02/20 02:34:13;;;;;;;8.45;6.25;;;;;;;;;;5032071;28;20123;-74
2023/02/20 02:36:47;;;;;;;7.85;5.90;;;;;;;;;;5032064;28;20495;-74
2023/02/20 02:39:26;;;;;;;8.15;5.95;;;;;;;;;;5031671;28;20056;-73
2023/02/20 02:41:55;;;;;;;9.10;6.45;;;;;;;;;;5032262;28;20047;-73
2023/02/20 02:44:24;;;;;;;10.43;6.22;;;;;;;;;;5031628;28;20113;-75
2023/02/20 02:47:10;;;;;;;7.90;5.85;;;;;;;;;;5031856;28;20120;-73
2023/02/20 02:50:15;;;;;;;7.82;6.20;;;;;;;;;;5021267;28;20452;-75
2023/02/20 02:52:50;;;;;;;8.55;6.40;;;;;;;;;;4970525;28;20596;-76
2023/02/20 02:55:18;;;;;;;8.50;6.75;;;;;;;;;;4969145;28;20039;-74
2023/02/20 02:57:45;;;;;;;8.50;6.68;;;;;;;;;;4986192;28;20037;-74
2023/02/20 03:00:11;;;;;;;7.50;5.78;;;;;;;;;;5029976;28;20100;-75
2023/02/20 03:02:41;;;;;;;7.63;5.78;;;;;;;;;;5031416;28;20060;-76
2023/02/20 03:05:09;;;;;;;7.60;6.18;;;;;;;;;;5047673;28;20032;-75
2023/02/20 03:07:37;;;;;;;8.02;5.82;;;;;;;;;;5050706;28;20538;-75
2023/02/20 03:10:06;;;;;;;7.70;5.50;;;;;;;;;;5051203;28;20565;-75
2023/02/20 03:12:34;;;;;;;8.07;5.60;;;;;;;;;;5049928;28;20047;-75
2023/02/20 03:18:00;;;;;;;8.02;6.13;;;;;;;;;;5031421;28;20029;-75
2023/02/20 03:20:26;;;;;;;10.63;6.55;;;;;;;;;;5032643;28;20124;-75
2023/02/20 03:22:55;;;;;;;8.20;6.13;;;;;;;;;;5030114;28;20025;-75
2023/02/20 03:25:24;;;;;;;9.15;6.20;;;;;;;;;;5031901;28;20022;-73
2023/02/20 03:27:53;;;;;;;9.20;6.55;;;;;;;;;;5036049;28;20589;-75
2023/02/20 03:30:27;;;;;;;9.77;6.97;;;;;;;;;;5041813;28;20048;-76
2023/02/20 03:44:07;;;;;;;7.47;5.53;;;;;;;;;;5034876;28;20060;-75
2023/02/20 03:46:35;;;;;;;8.45;5.82;;;;;;;;;;5035241;28;20091;-74
2023/02/20 03:49:08;;;;;;;7.30;5.15;;;;;;;;;;5030381;28;20554;-74
2023/02/20 03:51:34;;;;;;;7.65;5.93;;;;;;;;;;5030561;28;20022;-72
2023/02/20 03:54:00;;;;;;;7.40;5.30;;;;;;;;;;5031155;28;20018;-73
2023/02/20 03:56:28;;;;;;;9.00;5.90;;;;;;;;;;5030976;28;20021;-74
2023/02/20 03:58:55;;;;;;;10.45;6.10;;;;;;;;;;5029978;28;20109;-74
2023/02/20 04:01:23;;;;;;;8.65;5.60;;;;;;;;;;5030545;28;20489;-75
2023/02/20 04:03:49;;;;;;;5.95;4.97;;;;;;;;;;5030626;28;20063;-74
2023/02/20 04:06:16;;;;;;;7.72;5.95;;;;;;;;;;5030727;28;20095;-74
2023/02/20 04:08:46;;;;;;;7.68;6.22;;;;;;;;;;5030192;28;20503;-76
2023/02/20 04:11:15;;;;;;;6.95;5.25;;;;;;;;;;5030503;28;20025;-76
2023/02/20 04:13:42;;;;;;;7.90;5.82;;;;;;;;;;5017857;28;20399;-75
2023/02/20 04:16:08;;;;;;;7.80;5.25;;;;;;;;;;5051303;28;20024;-76
2023/02/20 04:18:34;;;;;;;8.00;5.53;;;;;;;;;;5049681;28;20021;-75
2023/02/20 04:21:02;;;;;;;9.82;5.68;;;;;;;;;;5052486;28;20059;-75
2023/02/20 04:23:29;;;;;;;8.80;6.13;;;;;;;;;;5054555;28;20036;-74
2023/02/20 04:25:55;;;;;;;6.47;5.20;;;;;;;;;;5054753;28;20096;-75
2023/02/20 04:28:21;;;;;;;8.60;6.30;;;;;;;;;;5053844;28;20125;-76
2023/02/20 04:30:47;;;;;;;7.63;6.22;;;;;;;;;;5039974;28;20562;-76
2023/02/20 04:33:14;;;;;;;8.88;6.25;;;;;;;;;;5034140;28;20064;-75
2023/02/20 04:35:40;;;;;;;6.93;5.45;;;;;;;;;;5038623;28;20017;-75
2023/02/20 04:38:06;;;;;;;8.57;6.38;;;;;;;;;;5053735;28;20562;-74
2023/02/20 04:40:32;;;;;;;10.13;6.72;;;;;;;;;;5052871;28;20028;-74
2023/02/20 04:42:58;;;;;;;9.07;6.32;;;;;;;;;;5039899;28;20400;-75
2023/02/20 04:45:24;;;;;;;10.75;7.28;;;;;;;;;;5032638;28;20031;-76
2023/02/20 04:47:51;;;;;;;9.25;7.10;;;;;;;;;;5033405;28;20029;-77
2023/02/20 04:50:24;;;;;;;10.32;7.70;;;;;;;;;;5043062;28;20025;-75
2023/02/20 04:52:50;;;;;;;11.75;8.05;;;;;;;;;;5052793;28;20056;-74
2023/02/20 04:55:17;;;;;;;11.38;7.80;;;;;;;;;;5036535;28;20052;-74
2023/02/20 04:57:43;;;;;;;10.90;7.75;;;;;;;;;;5032069;28;20476;-74
2023/02/20 05:00:11;;;;;;;12.07;7.97;;;;;;;;;;5033739;28;20036;-75
2023/02/20 05:02:37;;;;;;;11.15;8.23;;;;;;;;;;5034027;28;20083;-75
2023/02/20 05:05:05;;;;;;;12.52;8.95;;;;;;;;;;5034096;28;20379;-75
2023/02/20 05:07:31;;;;;;;13.55;9.15;;;;;;;;;;5032873;28;20104;-75
2023/02/20 05:09:57;;;;;;;11.95;8.75;;;;;;;;;;5040044;28;20028;-75
2023/02/20 05:12:23;;;;;;;13.25;9.32;;;;;;;;;;5053770;28;20032;-75
2023/02/20 05:14:49;;;;;;;11.88;8.82;;;;;;;;;;5053942;28;20013;-75
2023/02/20 05:17:15;;;;;;;13.45;9.73;;;;;;;;;;5054030;28;20028;-76
2023/02/20 05:19:41;;;;;;;14.90;9.57;;;;;;;;;;5055538;28;20052;-75
2023/02/20 05:22:21;;;;;;;15.18;9.57;;;;;;;;;;5053902;28;20509;-76
2023/02/20 05:24:48;;;;;;;14.20;8.55;;;;;;;;;;5057287;28;20035;-76
2023/02/20 05:27:15;;;;;;;12.93;8.13;;;;;;;;;;5039884;28;20040;-76
2023/02/20 05:29:48;;;;;;;11.02;8.23;;;;;;;;;;5037043;28;20094;-76
2023/02/20 05:32:15;;;;;;;10.35;7.93;;;;;;;;;;5035944;28;20534;-76
2023/02/20 05:34:41;;;;;;;11.73;8.52;;;;;;;;;;5036135;28;20046;-76
2023/02/20 05:37:07;;;;;;;12.27;8.50;;;;;;;;;;5052218;28;20111;-75
2023/02/20 05:39:33;;;;;;;12.88;9.63;;;;;;;;;;5054460;28;20467;-75
2023/02/20 05:41:59;;;;;;;13.95;8.50;;;;;;;;;;5049344;28;20021;-76
2023/02/20 05:44:25;;;;;;;14.20;8.60;;;;;;;;;;5032557;28;20021;-74
2023/02/20 05:46:53;;;;;;;13.27;9.63;;;;;;;;;;5033018;28;20376;-77
2023/02/20 05:49:19;;;;;;;13.73;8.63;;;;;;;;;;5033138;28;20455;-74
2023/02/20 05:51:45;;;;;;;12.55;8.38;;;;;;;;;;5053003;28;20556;-75
2023/02/20 05:54:11;;;;;;;13.00;8.32;;;;;;;;;;5052908;28;20290;-75
2023/02/20 05:56:41;;;;;;;13.23;8.73;;;;;;;;;;5052587;28;20032;-78
2023/02/20 05:59:07;;;;;;;13.60;8.43;;;;;;;;;;5052405;28;20025;-75
2023/02/20 06:01:33;;;;;;;11.18;7.38;;;;;;;;;;5052581;28;20507;-76
2023/02/20 06:04:00;;;;;;;13.43;8.52;;;;;;;;;;5052551;28;20525;-75
2023/02/20 06:06:32;;;;;;;11.77;7.50;;;;;;;;;;5052911;28;20032;-75
2023/02/20 06:08:58;;;;;;;10.43;7.38;;;;;;;;;;5050251;28;20025;-76
2023/02/20 06:11:24;;;;;;;12.45;7.45;;;;;;;;;;5052429;28;20475;-75
2023/02/20 06:13:50;;;;;;;10.05;7.13;;;;;;;;;;5052529;28;20044;-75
2023/02/20 06:16:22;;;;;;;11.05;7.30;;;;;;;;;;5052587;28;20051;-75
2023/02/20 06:18:48;;;;;;;12.50;7.55;;;;;;;;;;5050240;28;20059;-78
2023/02/20 06:21:14;;;;;;;10.40;6.78;;;;;;;;;;5052244;28;20028;-75
2023/02/20 06:23:42;;;;;;;10.55;7.05;;;;;;;;;;5050886;28;20043;-75
2023/02/20 06:26:08;;;;;;;10.15;6.85;;;;;;;;;;5050869;28;20017;-76
2023/02/20 06:28:34;;;;;;;10.32;6.88;;;;;;;;;;5051461;28;20025;-76
2023/02/20 06:31:00;;;;;;;10.15;7.20;;;;;;;;;;5037477;28;20025;-77
2023/02/20 06:33:26;;;;;;;10.85;6.60;;;;;;;;;;5031822;28;20059;-77
2023/02/20 06:35:52;;;;;;;9.65;6.15;;;;;;;;;;5032517;28;20014;-77
2023/02/20 06:38:18;;;;;;;10.40;6.80;;;;;;;;;;5031487;28;20076;-77
2023/02/20 06:40:44;;;;;;;9.63;6.72;;;;;;;;;;5032834;28;20091;-78
2023/02/20 06:43:10;;;;;;;11.00;6.60;;;;;;;;;;5031751;28;20108;-78
2023/02/20 06:45:36;;;;;;;8.90;6.30;;;;;;;;;;5031746;28;20079;-76
2023/02/20 06:48:03;;;;;;;11.98;7.38;;;;;;;;;;5031428;28;20025;-76
2023/02/20 06:50:29;;;;;;;10.52;6.25;;;;;;;;;;5041028;28;20443;-75
2023/02/20 06:52:55;;;;;;;8.45;6.38;;;;;;;;;;5051687;28;20833;-75
2023/02/20 06:55:21;;;;;;;8.45;5.72;;;;;;;;;;5050636;28;20099;-76
2023/02/20 06:57:48;;;;;;;11.13;6.97;;;;;;;;;;5031198;28;20021;-74
2023/02/20 07:00:14;;;;;;;8.95;5.75;;;;;;;;;;5040630;28;20033;-75
2023/02/20 07:02:40;;;;;;;7.20;5.30;;;;;;;;;;5050666;28;20027;-75
2023/02/20 07:05:08;;;;;;;6.97;5.25;;;;;;;;;;5052837;28;20028;-75
2023/02/20 07:07:34;;;;;;;7.60;5.60;;;;;;;;;;5031616;28;20022;-74
2023/02/20 07:10:00;;;;;;;6.68;5.07;;;;;;;;;;5032164;28;20044;-75
2023/02/20 07:12:29;;;;;;;8.02;5.57;;;;;;;;;;5030652;28;20034;-75
2023/02/20 07:14:55;;;;;;;8.55;5.40;;;;;;;;;;5031890;28;20030;-75
2023/02/20 07:17:21;;;;;;;6.25;4.82;;;;;;;;;;5029467;28;20022;-75
2023/02/20 07:19:47;;;;;;;6.95;5.20;;;;;;;;;;5031608;28;20021;-77
2023/02/20 07:22:12;;;;;;;8.65;5.40;;;;;;;;;;5031637;28;20472;-75
2023/02/20 07:24:40;;;;;;;8.60;5.32;;;;;;;;;;5033225;28;20025;-75
2023/02/20 07:27:06;;;;;;;5.75;4.70;;;;;;;;;;5049097;28;20026;-78
2023/02/20 07:29:32;;;;;;;8.52;5.53;;;;;;;;;;5048102;28;20033;-74
2023/02/20 07:31:58;;;;;;;6.85;5.13;;;;;;;;;;5062864;28;20111;-75
2023/02/20 07:34:24;;;;;;;7.20;5.10;;;;;;;;;;5051629;28;20032;-76
2023/02/20 07:36:50;;;;;;;4.90;4.18;;;;;;;;;;5051372;28;20028;-76
2023/02/20 07:39:16;;;;;;;7.05;4.78;;;;;;;;;;5050435;28;20142;-75
2023/02/20 07:41:42;;;;;;;6.70;4.60;;;;;;;;;;5046913;28;20438;-75
2023/02/20 07:44:08;;;;;;;5.53;4.15;;;;;;;;;;5031037;28;20013;-76
2023/02/20 07:46:34;;;;;;;7.10;4.43;;;;;;;;;;5031026;28;20109;-76
2023/02/20 07:49:01;;;;;;;4.75;4.25;;;;;;;;;;5030184;28;20075;-76
2023/02/20 07:51:27;;;;;;;6.95;4.45;;;;;;;;;;5030618;28;20605;-75
2023/02/20 07:53:53;;;;;;;6.20;3.83;;;;;;;;;;5031433;28;20384;-75
2023/02/20 07:56:20;;;;;;;7.75;4.20;;;;;;;;;;5030444;28;20021;-75
2023/02/20 07:58:46;;;;;;;5.35;4.18;;;;;;;;;;5030578;28;20029;-73
2023/02/20 08:01:12;;;;;;;7.28;3.88;;;;;;;;;;5023568;28;20036;-76
2023/02/20 08:03:38;;;;;;;4.50;3.67;;;;;;;;;;5035146;28;20028;-77
2023/02/20 08:06:05;;;;;;;7.30;4.00;;;;;;;;;;5051712;28;20388;-78
2023/02/20 08:08:34;;;;;;;3.97;3.17;;;;;;;;;;5050178;28;20340;-76
2023/02/20 08:11:00;;;;;;;5.22;3.70;;;;;;;;;;5050763;28;20028;-76
2023/02/20 08:13:27;;;;;;;4.10;3.65;;;;;;;;;;5048996;28;20029;-77
2023/02/20 08:15:53;;;;;;;5.57;3.83;;;;;;;;;;5050942;28;20021;-77
2023/02/20 08:18:19;;;;;;;5.32;3.60;;;;;;;;;;5048242;28;20031;-76
2023/02/20 08:20:46;;;;;;;5.70;4.32;;;;;;;;;;5050744;28;20493;-73
2023/02/20 08:23:16;;;;;;;6.50;4.18;;;;;;;;;;5048945;28;20033;-77
2023/02/20 08:25:42;;;;;;;7.53;3.92;;;;;;;;;;5050755;28;20021;-78
2023/02/20 08:28:08;;;;;;;5.10;4.13;;;;;;;;;;5051718;28;20021;-78
2023/02/20 08:30:34;;;;;;;7.40;4.07;;;;;;;;;;5052141;28;20025;-79
2023/02/20 08:33:04;;;;;;;11.48;3.85;;;;;;;;;;5051956;28;20479;-79
2023/02/20 08:35:33;;;;;;;6.50;4.80;;;;;;;;;;5054270;28;20075;-79
2023/02/20 08:37:59;;;;;;;5.28;3.95;;;;;;;;;;5049888;28;20037;-77
2023/02/20 08:40:25;;;;;;;4.60;3.95;;;;;;;;;;5050096;28;20028;-77
2023/02/20 08:42:51;;;;;;;6.35;4.47;;;;;;;;;;5032846;28;20025;-80
2023/02/20 08:45:17;;;;;;;5.55;4.13;;;;;;;;;;5031550;28;20105;-80
2023/02/20 08:47:43;;;;;;;5.32;4.00;;;;;;;;;;5031801;28;20018;-79
2023/02/20 08:50:09;;;;;;;6.28;3.70;;;;;;;;;;5032061;28;20029;-79
2023/02/20 08:52:35;;;;;;;5.13;3.80;;;;;;;;;;5031677;28;20496;-79
2023/02/20 08:55:01;;;;;;;6.95;4.10;;;;;;;;;;5034354;28;20026;-79
2023/02/20 08:57:27;;;;;;;5.75;4.20;;;;;;;;;;5036861;28;20030;-76
2023/02/20 08:59:53;;;;;;;11.65;7.32;;;;;;;;;;5031207;28;20372;-76
2023/02/20 09:02:23;;;;;;;26.48;14.80;;;;;;;;;;5030676;28;20101;-75
2023/02/20 09:04:49;;;;;;;46.30;24.42;;;;;;;;;;5030414;28;20401;-77
2023/02/20 09:07:15;;;;;;;8.40;5.18;;;;;;;;;;5031742;28;20021;-76
2023/02/20 09:09:41;;;;;;;14.73;8.65;;;;;;;;;;5034585;28;20017;-78
2023/02/20 09:12:08;;;;;;;14.88;7.78;;;;;;;;;;5034266;28;20029;-77
2023/02/20 09:14:34;;;;;;;12.27;7.65;;;;;;;;;;5034145;28;20487;-77
2023/02/20 09:17:00;;;;;;;6.35;3.70;;;;;;;;;;5034391;28;20395;-74
2023/02/20 09:19:26;;;;;;;21.90;11.57;;;;;;;;;;5030163;28;20025;-76
2023/02/20 09:21:52;;;;;;;5.22;3.58;;;;;;;;;;5038758;28;20056;-76
2023/02/20 09:24:18;;;;;;;8.75;6.05;;;;;;;;;;5036079;28;20029;-75
2023/02/20 09:26:44;;;;;;;10.57;5.68;;;;;;;;;;5033838;28;20503;-76
2023/02/20 09:29:10;;;;;;;5.85;4.50;;;;;;;;;;5036502;28;20032;-78
2023/02/20 09:31:36;;;;;;;8.20;4.40;;;;;;;;;;5054280;28;20075;-76
2023/02/20 09:34:03;;;;;;;17.95;9.23;;;;;;;;;;5053693;28;20052;-76
2023/02/20 09:36:29;;;;;;;9.48;4.57;;;;;;;;;;5053922;28;20029;-76
2023/02/20 09:38:55;;;;;;;8.55;5.25;;;;;;;;;;5038189;28;20464;-78
2023/02/20 09:41:24;;;;;;;4.88;3.55;;;;;;;;;;5041551;28;20055;-75
2023/02/20 09:43:54;;;;;;;5.32;3.10;;;;;;;;;;5054070;28;20025;-76
2023/02/20 09:46:22;;;;;;;7.00;3.80;;;;;;;;;;5054085;28;20391;-76
2023/02/20 09:48:48;;;;;;;13.15;7.70;;;;;;;;;;5052321;28;20025;-73
2023/02/20 09:51:21;;;;;;;4.43;2.50;;;;;;;;;;5053936;28;20035;-75
2023/02/20 09:54:05;;;;;;;12.52;4.05;;;;;;;;;;5053473;28;20033;-75
2023/02/20 09:56:36;;;;;;;6.43;3.63;;;;;;;;;;5035445;28;20549;-78
2023/02/20 09:59:24;;;;;;;7.85;5.15;;;;;;;;;;5032935;28;20036;-76
2023/02/20 10:01:54;;;;;;;8.82;3.88;;;;;;;;;;5034041;28;20060;-77
2023/02/20 10:04:26;;;;;;;10.80;4.65;;;;;;;;;;5032757;28;20163;-74
2023/02/20 10:06:54;;;;;;;4.78;2.88;;;;;;;;;;5033607;28;20029;-74
2023/02/20 10:09:20;;;;;;;11.70;6.15;;;;;;;;;;5031332;28;20026;-76
2023/02/20 10:11:58;;;;;;;3.40;2.45;;;;;;;;;;5033013;28;20395;-77
2023/02/20 10:14:27;;;;;;;8.98;6.10;;;;;;;;;;5033893;28;20052;-75
2023/02/20 10:16:53;;;;;;;5.85;2.83;;;;;;;;;;5033815;28;20365;-77
2023/02/20 10:19:31;;;;;;;15.95;9.07;;;;;;;;;;5032163;28;20032;-76
2023/02/20 10:22:00;;;;;;;14.70;9.00;;;;;;;;;;5031784;28;20037;-74
2023/02/20 10:24:35;;;;;;;15.90;8.80;;;;;;;;;;5032394;28;20027;-74
2023/02/20 10:27:12;;;;;;;9.80;6.18;;;;;;;;;;5033183;28;20159;-73
2023/02/20 10:29:39;;;;;;;9.82;6.03;;;;;;;;;;5041999;28;20106;-77
2023/02/20 10:32:08;;;;;;;13.90;7.95;;;;;;;;;;5052783;28;20033;-76
2023/02/20 10:34:41;;;;;;;3.40;1.83;;;;;;;;;;5052098;28;20060;-75
2023/02/20 10:37:18;;;;;;;8.13;4.97;;;;;;;;;;5051708;28;20040;-74
2023/02/20 10:39:55;;;;;;;5.10;2.80;;;;;;;;;;5052673;28;20028;-75
2023/02/20 10:42:24;;;;;;;4.43;2.42;;;;;;;;;;5034722;28;20018;-76
2023/02/20 10:44:57;;;;;;;3.40;2.75;;;;;;;;;;5032694;28;20384;-76
2023/02/20 10:47:35;;;;;;;5.75;3.28;;;;;;;;;;5032238;28;20419;-75
2023/02/20 10:50:16;;;;;;;4.65;3.20;;;;;;;;;;5026343;28;20100;-76
2023/02/20 10:52:54;;;;;;;9.95;2.88;;;;;;;;;;5016360;28;20087;-75
2023/02/20 10:55:20;;;;;;;8.80;4.80;;;;;;;;;;5010612;28;20084;-76
2023/02/20 10:57:59;;;;;;;6.78;4.13;;;;;;;;;;5014103;28;20021;-76
2023/02/20 11:00:40;;;;;;;10.68;6.30;;;;;;;;;;5020760;28;20392;-75
2023/02/20 11:03:11;;;;;;;4.45;2.45;;;;;;;;;;5025850;28;20545;-73
2023/02/20 11:05:43;;;;;;;2.97;1.73;;;;;;;;;;5029934;28;20360;-72
2023/02/20 11:08:10;;;;;;;6.38;2.70;;;;;;;;;;5011500;28;20022;-74
2023/02/20 11:10:37;;;;;;;5.60;2.83;;;;;;;;;;5012027;28;20057;-75
2023/02/20 11:13:04;;;;;;;5.35;2.92;;;;;;;;;;5012145;28;20512;-75
2023/02/20 11:15:32;;;;;;;4.45;1.73;;;;;;;;;;5022547;28;20032;-76
2023/02/20 11:17:58;;;;;;;4.53;2.13;;;;;;;;;;5029672;28;20018;-75
2023/02/20 11:20:37;;;;;;;5.05;3.33;;;;;;;;;;5024489;28;20059;-74
2023/02/20 11:23:03;;;;;;;6.68;2.70;;;;;;;;;;5015647;28;20097;-74
2023/02/20 11:25:33;;;;;;;2.53;1.73;;;;;;;;;;5029656;28;20025;-73
2023/02/20 11:28:17;;;;;;;4.57;2.80;;;;;;;;;;5029143;28;20043;-74
2023/02/20 11:30:44;;;;;;;5.75;3.03;;;;;;;;;;5048192;28;20057;-74
2023/02/20 11:33:11;;;;;;;5.43;2.33;;;;;;;;;;5048325;28;20063;-74
2023/02/20 11:35:37;;;;;;;2.08;1.48;;;;;;;;;;5050025;28;20398;-75
2023/02/20 11:38:22;;;;;;;4.43;2.47;;;;;;;;;;5047446;28;20369;-74
2023/02/20 11:41:02;;;;;;;5.28;2.33;;;;;;;;;;5045562;28;20025;-74
2023/02/20 11:43:28;;;;;;;3.95;1.58;;;;;;;;;;5031843;28;20087;-75
2023/02/20 11:46:07;;;;;;;3.45;2.40;;;;;;;;;;5031679;28;20029;-73
2023/02/20 11:48:33;;;;;;;4.20;1.70;;;;;;;;;;5033134;28;20083;-74
2023/02/20 11:50:59;;;;;;;3.83;1.95;;;;;;;;;;5036533;28;20025;-75
2023/02/20 11:53:30;;;;;;;3.60;1.95;;;;;;;;;;5036679;28;20072;-75
2023/02/20 11:56:08;;;;;;;2.72;1.80;;;;;;;;;;5035212;28;20033;-75
2023/02/20 11:58:34;;;;;;;2.65;1.55;;;;;;;;;;5034356;28;20026;-75
2023/02/20 12:01:00;;;;;;;2.58;1.60;;;;;;;;;;5031928;28;20052;-75
2023/02/20 12:03:28;;;;;;;2.03;1.40;;;;;;;;;;5031690;28;20116;-75
2023/02/20 12:05:54;;;;;;;4.80;2.65;;;;;;;;;;5032692;28;20029;-74
2023/02/20 12:08:23;;;;;;;3.22;1.83;;;;;;;;;;5030614;28;20036;-75
2023/02/20 12:10:52;;;;;;;2.70;1.45;;;;;;;;;;5030094;28;20021;-74
2023/02/20 12:13:18;;;;;;;7.78;2.58;;;;;;;;;;5031378;28;20501;-73
2023/02/20 12:15:50;;;;;;;2.35;1.45;;;;;;;;;;5031188;28;20107;-74
2023/02/20 12:18:25;;;;;;;5.13;2.90;;;;;;;;;;5029259;28;20029;-74
2023/02/20 12:21:09;;;;;;;2.50;1.10;;;;;;;;;;5031090;28;20033;-75
2023/02/20 12:23:41;;;;;;;4.22;1.77;;;;;;;;;;5029278;28;20400;-76
2023/02/20 12:26:20;;;;;;;4.30;2.28;;;;;;;;;;5031683;28;20053;-76
2023/02/20 12:29:01;;;;;;;3.88;1.90;;;;;;;;;;5031155;28;20037;-74
2023/02/20 12:31:36;;;;;;;2.35;1.10;;;;;;;;;;5031408;28;20025;-75
2023/02/20 12:34:16;;;;;;;4.20;1.92;;;;;;;;;;5032141;28;20045;-74
2023/02/20 12:36:46;;;;;;;4.10;1.98;;;;;;;;;;5032502;28;20029;-74
2023/02/20 12:39:21;;;;;;;5.28;1.67;;;;;;;;;;5032628;28;20550;-74
2023/02/20 12:41:53;;;;;;;3.88;1.75;;;;;;;;;;5039915;28;20030;-75
2023/02/20 12:44:22;;;;;;;5.00;1.80;;;;;;;;;;5049336;28;20025;-75
2023/02/20 12:46:48;;;;;;;3.22;1.33;;;;;;;;;;5042477;28;20025;-75
2023/02/20 12:49:16;;;;;;;3.05;1.60;;;;;;;;;;5048455;28;20048;-76
2023/02/20 12:51:49;;;;;;;3.97;0.95;;;;;;;;;;5049527;28;20026;-75
2023/02/20 12:54:18;;;;;;;2.55;1.48;;;;;;;;;;5050568;28;20115;-75
2023/02/20 12:56:59;;;;;;;2.30;1.17;;;;;;;;;;5050525;28;20032;-75
2023/02/20 12:59:25;;;;;;;;;;;;;;;;;;5048762;28;20052;-75
2023/02/20 13:01:52;;;;;;;4.40;1.20;;;;;;;;;;5050142;28;19905;-75
2023/02/20 13:04:30;;;;;;;4.07;1.70;;;;;;;;;;5041088;28;20057;-75
2023/02/20 13:07:00;;;;;;;4.22;1.27;;;;;;;;;;5036230;28;20029;-76
2023/02/20 13:09:30;;;;;;;1.58;1.02;;;;;;;;;;5037131;28;20030;-75
2023/02/20 13:12:00;;;;;;;3.80;1.83;;;;;;;;;;5037495;28;20042;-77
2023/02/20 13:14:40;;;;;;;3.92;1.20;;;;;;;;;;5037337;28;20113;-74
2023/02/20 13:17:13;;;;;;;2.92;0.90;;;;;;;;;;5033816;28;20041;-75
2023/02/20 13:19:43;;;;;;;3.17;1.60;;;;;;;;;;5034382;28;20100;-76
2023/02/20 13:22:09;;;;;;;3.78;1.58;;;;;;;;;;5034529;28;20032;-74
2023/02/20 13:24:37;;;;;;;2.33;1.00;;;;;;;;;;5034162;28;20099;-74
2023/02/20 13:27:08;;;;;;;1.77;0.75;;;;;;;;;;5033845;28;20032;-74
2023/02/20 13:29:38;;;;;;;1.52;1.10;;;;;;;;;;5033929;28;20074;-74
2023/02/20 13:32:24;;;;;;;1.88;1.08;;;;;;;;;;5034026;28;20026;-75
2023/02/20 13:34:50;;;;;;;2.08;1.02;;;;;;;;;;5034075;28;20132;-75
2023/02/20 13:37:46;;;;;;;7.07;1.92;;;;;;;;;;5033226;28;20033;-74
2023/02/20 13:40:24;;;;;;;3.20;1.75;;;;;;;;;;5024222;28;20033;-76
2023/02/20 13:43:10;;;;;;;1.88;1.27;;;;;;;;;;5034023;28;20018;-74
2023/02/20 13:45:37;;;;;;;2.10;1.20;;;;;;;;;;5033843;28;20029;-74
2023/02/20 13:48:19;;;;;;;6.72;1.50;;;;;;;;;;5031781;28;20113;-76
2023/02/20 13:50:45;;;;;;;2.45;1.20;;;;;;;;;;5032433;28;20037;-72
2023/02/20 13:53:11;;;;;;;3.00;1.27;;;;;;;;;;5032902;28;20029;-74
2023/02/20 13:55:37;;;;;;;2.67;1.75;;;;;;;;;;5033744;28;20530;-75
2023/02/20 13:58:11;;;;;;;2.15;1.02;;;;;;;;;;5032731;28;20120;-74
2023/02/20 14:00:53;;;;;;;2.17;1.13;;;;;;;;;;5033903;28;20487;-74
2023/02/20 14:03:29;;;;;;;1.45;0.82;;;;;;;;;;5032213;28;20068;-74
2023/02/20 14:06:13;;;;;;;1.83;0.85;;;;;;;;;;5032070;28;20080;-73
2023/02/20 14:08:40;;;;;;;3.50;1.20;;;;;;;;;;5031765;28;20021;-75
2023/02/20 14:11:06;;;;;;;4.28;1.10;;;;;;;;;;5033431;28;20075;-76
2023/02/20 14:13:33;;;;;;;3.60;1.25;;;;;;;;;;5034195;28;20030;-74
2023/02/20 14:16:00;;;;;;;2.97;1.13;;;;;;;;;;5033536;28;20026;-74
2023/02/20 14:18:26;;;;;;;1.88;1.00;;;;;;;;;;5031142;28;20018;-74
2023/02/20 14:21:10;;;;;;;2.28;1.02;;;;;;;;;;5033278;28;20030;-74
2023/02/20 14:23:37;;;;;;;2.88;1.33;;;;;;;;;;5032720;28;20057;-75
2023/02/20 14:26:17;;;;;;;3.03;0.90;;;;;;;;;;5033181;28;20407;-75
2023/02/20 14:28:53;;;;;;;2.95;1.13;;;;;;;;;;5032582;28;20018;-75
2023/02/20 14:31:27;;;;;;;3.45;1.08;;;;;;;;;;5032928;28;20025;-73
2023/02/20 14:34:00;;;;;;;2.95;1.25;;;;;;;;;;5032826;28;20483;-75
2023/02/20 14:36:32;;;;;;;2.90;1.38;;;;;;;;;;5032884;28;20029;-75
2023/02/20 14:39:22;;;;;;;4.28;1.40;;;;;;;;;;5031005;28;20025;-74
2023/02/20 14:41:52;;;;;;;3.50;1.35;;;;;;;;;;5023614;28;20044;-74
2023/02/20 14:44:18;;;;;;;2.22;1.25;;;;;;;;;;5032954;28;20071;-74
2023/02/20 14:46:45;;;;;;;4.82;1.38;;;;;;;;;;5032308;28;20526;-73
2023/02/20 14:49:16;;;;;;;3.63;2.00;;;;;;;;;;5032030;28;20642;-76
2023/02/20 14:51:42;;;;;;;3.88;1.45;;;;;;;;;;5032978;28;20029;-75
2023/02/20 14:54:14;;;;;;;5.18;1.48;;;;;;;;;;5032849;28;20022;-75
2023/02/20 14:56:40;;;;;;;5.82;1.85;;;;;;;;;;5032527;28;20026;-74
2023/02/20 14:59:24;;;;;;;2.38;1.10;;;;;;;;;;5032218;28;20025;-74
2023/02/20 15:01:50;;;;;;;4.03;1.83;;;;;;;;;;5031351;28;20025;-75
2023/02/20 15:04:17;;;;;;;4.72;1.25;;;;;;;;;;5032278;28;20403;-74
2023/02/20 15:06:45;;;;;;;3.92;1.65;;;;;;;;;;5031141;28;20076;-75